createdAt,value
2017-09-12T00:00:00.418Z,0
2017-09-12T00:01:09.264Z,0
2017-09-12T00:02:18.211Z,0
2017-09-12T00:03:27.060Z,0
2017-09-12T00:04:35.901Z,0
2017-09-12T00:05:44.748Z,0
2017-09-12T00:06:53.591Z,0
2017-09-12T00:08:02.485Z,0
2017-09-12T00:09:11.350Z,0
2017-09-12T00:10:20.174Z,0
2017-09-12T00:11:29.020Z,0
2017-09-12T00:12:37.867Z,0
2017-09-12T00:13:47.351Z,0
2017-09-12T00:14:56.189Z,0
2017-09-12T00:16:05.035Z,0
2017-09-12T00:17:13.879Z,0
2017-09-12T00:18:22.723Z,0
2017-09-12T00:19:31.719Z,0
2017-09-12T00:20:40.563Z,0
2017-09-12T00:21:49.406Z,0
2017-09-12T00:22:58.251Z,0
2017-09-12T00:24:07.097Z,0
2017-09-12T00:25:16.092Z,0
2017-09-12T00:26:24.935Z,0
2017-09-12T00:27:34.112Z,0
2017-09-12T00:28:43.289Z,0
2017-09-12T00:29:52.132Z,0
2017-09-12T00:31:01.128Z,0
2017-09-12T00:32:09.972Z,0
2017-09-12T00:33:18.817Z,0
2017-09-12T00:34:27.661Z,0
2017-09-12T00:35:36.841Z,0
2017-09-12T00:36:45.682Z,0
2017-09-12T00:37:54.526Z,0
2017-09-12T00:39:03.371Z,0
2017-09-12T00:40:12.218Z,0
2017-09-12T00:41:21.063Z,0
2017-09-12T00:42:29.954Z,0
2017-09-12T00:43:38.800Z,0
2017-09-12T00:44:47.644Z,0
2017-09-12T00:45:56.485Z,0
2017-09-12T00:47:05.331Z,0
2017-09-12T00:48:14.175Z,0
2017-09-12T00:49:23.020Z,0
2017-09-12T00:50:31.865Z,0
2017-09-12T00:51:40.709Z,0
2017-09-12T00:52:49.553Z,0
2017-09-12T00:53:58.445Z,0
2017-09-12T00:55:07.289Z,0
2017-09-12T00:56:16.134Z,0
2017-09-12T00:57:24.978Z,0
2017-09-12T00:58:34.161Z,0
2017-09-12T00:59:43.304Z,0
2017-09-12T01:00:52.149Z,0
2017-09-12T01:02:00.991Z,0
2017-09-12T01:03:09.836Z,0
2017-09-12T01:04:18.680Z,0
2017-09-12T01:05:27.824Z,0
2017-09-12T01:06:36.668Z,0
2017-09-12T01:07:45.511Z,0
2017-09-12T01:08:54.355Z,0
2017-09-12T01:10:03.196Z,0
2017-09-12T01:11:12.041Z,0
2017-09-12T01:12:20.883Z,0
2017-09-12T01:13:29.727Z,0
2017-09-12T01:14:38.573Z,0
2017-09-12T01:15:47.744Z,0
2017-09-12T01:16:56.739Z,0
2017-09-12T01:18:05.581Z,0
2017-09-12T01:19:14.425Z,0
2017-09-12T01:20:23.270Z,0
2017-09-12T01:21:32.111Z,0
2017-09-12T01:22:41.007Z,0
2017-09-12T01:23:49.851Z,0
2017-09-12T01:24:58.694Z,0
2017-09-12T01:26:07.873Z,0
2017-09-12T01:27:16.711Z,0
2017-09-12T01:28:25.653Z,0
2017-09-12T01:29:34.494Z,0
2017-09-12T01:30:43.336Z,0
2017-09-12T01:31:52.202Z,0
2017-09-12T01:33:01.022Z,0
2017-09-12T01:34:09.915Z,0
2017-09-12T01:35:19.101Z,0
2017-09-12T01:36:27.944Z,0
2017-09-12T01:37:36.784Z,0
2017-09-12T01:38:45.626Z,0
2017-09-12T01:39:54.617Z,0
2017-09-12T01:41:03.459Z,0
2017-09-12T01:42:12.302Z,0
2017-09-12T01:43:21.149Z,0
2017-09-12T01:44:29.992Z,0
2017-09-12T01:45:38.932Z,0
2017-09-12T01:46:47.772Z,0
2017-09-12T01:47:56.620Z,0
2017-09-12T01:49:05.464Z,0
2017-09-12T01:50:14.306Z,0
2017-09-12T01:51:23.400Z,0
2017-09-12T01:52:32.243Z,0
2017-09-12T01:53:41.086Z,0
2017-09-12T01:54:49.933Z,0
2017-09-12T01:55:58.771Z,0
2017-09-12T01:57:07.761Z,0
2017-09-12T01:58:16.604Z,0
2017-09-12T01:59:25.447Z,0
2017-09-12T02:00:34.292Z,0
2017-09-12T02:01:43.137Z,0
2017-09-12T02:02:52.132Z,0
2017-09-12T02:04:00.978Z,0
2017-09-12T02:05:09.820Z,0
2017-09-12T02:06:18.662Z,0
2017-09-12T02:07:27.506Z,0
2017-09-12T02:08:36.600Z,0
2017-09-12T02:09:45.440Z,0
2017-09-12T02:10:54.283Z,0
2017-09-12T02:12:03.125Z,0
2017-09-12T02:13:11.968Z,0
2017-09-12T02:14:20.861Z,0
2017-09-12T02:15:29.707Z,0
2017-09-12T02:16:38.881Z,0
2017-09-12T02:17:47.733Z,0
2017-09-12T02:18:56.575Z,0
2017-09-12T02:20:05.853Z,0
2017-09-12T02:21:14.693Z,0
2017-09-12T02:22:23.536Z,0
2017-09-12T02:23:32.378Z,0
2017-09-12T02:24:41.223Z,0
2017-09-12T02:25:50.065Z,0
2017-09-12T02:26:59.248Z,0
2017-09-12T02:28:08.468Z,0
2017-09-12T02:29:17.648Z,0
2017-09-12T02:30:26.492Z,0
2017-09-12T02:31:35.436Z,0
2017-09-12T02:32:44.280Z,0
2017-09-12T02:33:53.122Z,0
2017-09-12T02:35:01.968Z,0
2017-09-12T02:36:11.148Z,0
2017-09-12T02:37:20.144Z,0
2017-09-12T02:38:28.987Z,0
2017-09-12T02:39:37.832Z,0
2017-09-12T02:40:46.678Z,0
2017-09-12T02:41:55.518Z,0
2017-09-12T02:43:04.513Z,0
2017-09-12T02:44:13.353Z,0
2017-09-12T02:45:22.193Z,0
2017-09-12T02:46:31.037Z,0
2017-09-12T02:47:39.880Z,0
2017-09-12T02:48:48.721Z,0
2017-09-12T02:49:57.571Z,0
2017-09-12T02:51:06.403Z,0
2017-09-12T02:52:15.245Z,0
2017-09-12T02:53:24.086Z,0
2017-09-12T02:54:33.083Z,0
2017-09-12T02:55:41.926Z,0
2017-09-12T02:56:51.098Z,0
2017-09-12T02:57:59.941Z,0
2017-09-12T02:59:08.784Z,0
2017-09-12T03:00:17.779Z,0
2017-09-12T03:01:26.619Z,0
2017-09-12T03:02:35.464Z,0
2017-09-12T03:03:44.639Z,0
2017-09-12T03:04:53.481Z,0
2017-09-12T03:06:02.575Z,0
2017-09-12T03:07:11.420Z,0
2017-09-12T03:08:20.263Z,0
2017-09-12T03:09:29.439Z,0
2017-09-12T03:10:38.286Z,0
2017-09-12T03:11:47.329Z,0
2017-09-12T03:12:56.174Z,0
2017-09-12T03:14:05.016Z,0
2017-09-12T03:15:13.857Z,0
2017-09-12T03:16:22.703Z,0
2017-09-12T03:17:31.594Z,0
2017-09-12T03:18:40.439Z,0
2017-09-12T03:19:49.285Z,0
2017-09-12T03:20:58.128Z,0
2017-09-12T03:22:06.969Z,0
2017-09-12T03:23:15.963Z,0
2017-09-12T03:24:24.806Z,0
2017-09-12T03:25:33.650Z,0
2017-09-12T03:26:42.492Z,0
2017-09-12T03:27:51.334Z,0
2017-09-12T03:29:00.327Z,0
2017-09-12T03:30:09.172Z,0
2017-09-12T03:31:18.017Z,0
2017-09-12T03:32:26.863Z,0
2017-09-12T03:33:36.044Z,0
2017-09-12T03:34:45.039Z,0
2017-09-12T03:35:54.213Z,0
2017-09-12T03:37:03.391Z,0
2017-09-12T03:38:12.234Z,0
2017-09-12T03:39:21.077Z,0
2017-09-12T03:40:30.067Z,0
2017-09-12T03:41:38.911Z,0
2017-09-12T03:42:47.755Z,0
2017-09-12T03:43:56.619Z,0
2017-09-12T03:45:05.806Z,0
2017-09-12T03:46:14.897Z,0
2017-09-12T03:47:23.741Z,0
2017-09-12T03:48:32.584Z,0
2017-09-12T03:49:41.428Z,0
2017-09-12T03:50:50.273Z,0
2017-09-12T03:51:59.448Z,0
2017-09-12T03:53:08.290Z,0
2017-09-12T03:54:17.136Z,0
2017-09-12T03:55:25.981Z,0
2017-09-12T03:56:34.822Z,0
2017-09-12T03:57:43.764Z,0
2017-09-12T03:58:52.605Z,0
2017-09-12T04:00:01.450Z,0
2017-09-12T04:01:10.293Z,0
2017-09-12T04:02:19.139Z,0
2017-09-12T04:03:28.130Z,0
2017-09-12T04:04:36.975Z,0
2017-09-12T04:05:45.818Z,0
2017-09-12T04:06:54.663Z,0
2017-09-12T04:08:03.511Z,0
2017-09-12T04:09:12.843Z,0
2017-09-12T04:10:22.013Z,0
2017-09-12T04:11:30.856Z,0
2017-09-12T04:12:39.697Z,0
2017-09-12T04:13:48.542Z,0
2017-09-12T04:14:57.735Z,0
2017-09-12T04:16:06.578Z,0
2017-09-12T04:17:15.421Z,0
2017-09-12T04:18:24.263Z,0
2017-09-12T04:19:33.105Z,0
2017-09-12T04:20:41.999Z,0
2017-09-12T04:21:50.842Z,0
2017-09-12T04:22:59.685Z,0
2017-09-12T04:24:08.530Z,0
2017-09-12T04:25:17.377Z,0
2017-09-12T04:26:26.515Z,0
2017-09-12T04:27:35.359Z,0
2017-09-12T04:28:44.202Z,0
2017-09-12T04:29:53.045Z,0
2017-09-12T04:31:01.889Z,0
2017-09-12T04:32:10.832Z,0
2017-09-12T04:33:19.677Z,0
2017-09-12T04:34:28.519Z,0
2017-09-12T04:35:37.364Z,0
2017-09-12T04:36:46.245Z,0
2017-09-12T04:37:55.305Z,0
2017-09-12T04:39:04.147Z,0
2017-09-12T04:40:12.990Z,0
2017-09-12T04:41:21.835Z,0
2017-09-12T04:42:30.674Z,0
2017-09-12T04:43:39.916Z,0
2017-09-12T04:44:48.759Z,0
2017-09-12T04:45:57.601Z,0
2017-09-12T04:47:06.446Z,0
2017-09-12T04:48:15.290Z,0
2017-09-12T04:49:24.284Z,0
2017-09-12T04:50:33.125Z,0
2017-09-12T04:51:41.968Z,0
2017-09-12T04:52:50.812Z,0
2017-09-12T04:53:59.654Z,5
2017-09-12T04:55:08.646Z,5
2017-09-12T04:56:17.819Z,5
2017-09-12T04:57:26.663Z,5
2017-09-12T04:58:35.506Z,10
2017-09-12T04:59:44.349Z,10
2017-09-12T05:00:53.351Z,10
2017-09-12T05:02:02.191Z,10
2017-09-12T05:03:11.037Z,15
2017-09-12T05:04:19.894Z,15
2017-09-12T05:05:28.729Z,15
2017-09-12T05:06:37.724Z,15
2017-09-12T05:07:46.570Z,15
2017-09-12T05:08:55.415Z,15
2017-09-12T05:10:04.259Z,15
2017-09-12T05:11:13.106Z,20
2017-09-12T05:12:22.102Z,20
2017-09-12T05:13:30.948Z,20
2017-09-12T05:14:39.794Z,25
2017-09-12T05:15:48.644Z,25
2017-09-12T05:16:57.523Z,25
2017-09-12T05:18:06.386Z,30
2017-09-12T05:19:15.233Z,35
2017-09-12T05:20:24.081Z,35
2017-09-12T05:21:32.928Z,40
2017-09-12T05:22:41.775Z,40
2017-09-12T05:23:50.770Z,40
2017-09-12T05:24:59.619Z,40
2017-09-12T05:26:08.464Z,40
2017-09-12T05:27:17.311Z,40
2017-09-12T05:28:26.155Z,40
2017-09-12T05:29:35.002Z,35
2017-09-12T05:30:44.176Z,35
2017-09-12T05:31:53.023Z,35
2017-09-12T05:33:01.869Z,40
2017-09-12T05:34:10.719Z,40
2017-09-12T05:35:19.563Z,40
2017-09-12T05:36:28.409Z,40
2017-09-12T05:37:37.255Z,45
2017-09-12T05:38:46.471Z,45
2017-09-12T05:39:55.442Z,45
2017-09-12T05:41:04.994Z,45
2017-09-12T05:42:13.874Z,40
2017-09-12T05:43:22.860Z,30
2017-09-12T05:44:31.790Z,30
2017-09-12T05:45:40.695Z,30
2017-09-12T05:46:49.602Z,30
2017-09-12T05:47:58.447Z,35
2017-09-12T05:49:07.293Z,40
2017-09-12T05:50:16.137Z,50
2017-09-12T05:51:24.981Z,60
2017-09-12T05:52:33.824Z,55
2017-09-12T05:53:42.667Z,65
2017-09-12T05:54:51.840Z,65
2017-09-12T05:56:00.686Z,65
2017-09-12T05:57:09.530Z,60
2017-09-12T05:58:18.374Z,65
2017-09-12T05:59:27.550Z,70
2017-09-12T06:00:36.399Z,75
2017-09-12T06:01:45.245Z,80
2017-09-12T06:02:54.089Z,90
2017-09-12T06:04:02.937Z,90
2017-09-12T06:05:12.407Z,100
2017-09-12T06:06:21.249Z,110
2017-09-12T06:07:30.098Z,135
2017-09-12T06:08:38.948Z,145
2017-09-12T06:09:47.787Z,145
2017-09-12T06:10:56.779Z,140
2017-09-12T06:12:05.644Z,135
2017-09-12T06:13:14.467Z,130
2017-09-12T06:14:23.313Z,115
2017-09-12T06:15:32.176Z,105
2017-09-12T06:16:41.152Z,90
2017-09-12T06:17:49.994Z,75
2017-09-12T06:18:58.839Z,75
2017-09-12T06:20:08.013Z,75
2017-09-12T06:21:16.859Z,65
2017-09-12T06:22:25.855Z,60
2017-09-12T06:23:34.698Z,55
2017-09-12T06:24:43.542Z,50
2017-09-12T06:25:52.717Z,55
2017-09-12T06:27:01.562Z,60
2017-09-12T06:28:10.656Z,75
2017-09-12T06:29:19.501Z,90
2017-09-12T06:30:28.345Z,120
2017-09-12T06:31:37.189Z,130
2017-09-12T06:32:46.034Z,175
2017-09-12T06:33:55.029Z,180
2017-09-12T06:35:03.871Z,185
2017-09-12T06:36:12.716Z,180
2017-09-12T06:37:21.559Z,165
2017-09-12T06:38:30.399Z,155
2017-09-12T06:39:39.395Z,150
2017-09-12T06:40:48.240Z,145
2017-09-12T06:41:57.085Z,135
2017-09-12T06:43:05.929Z,135
2017-09-12T06:44:14.772Z,145
2017-09-12T06:45:23.968Z,135
2017-09-12T06:46:32.811Z,120
2017-09-12T06:47:41.653Z,125
2017-09-12T06:48:50.495Z,155
2017-09-12T06:49:59.340Z,195
2017-09-12T06:51:08.334Z,200
2017-09-12T06:52:17.179Z,180
2017-09-12T06:53:26.024Z,175
2017-09-12T06:54:34.868Z,175
2017-09-12T06:55:43.714Z,135
2017-09-12T06:56:52.609Z,145
2017-09-12T06:58:01.453Z,105
2017-09-12T06:59:10.298Z,105
2017-09-12T07:00:19.149Z,105
2017-09-12T07:01:27.995Z,120
2017-09-12T07:02:36.892Z,130
2017-09-12T07:03:45.738Z,105
2017-09-12T07:04:54.586Z,115
2017-09-12T07:06:03.433Z,95
2017-09-12T07:07:12.282Z,90
2017-09-12T07:08:21.514Z,95
2017-09-12T07:09:32.020Z,85
2017-09-12T07:10:40.906Z,105
2017-09-12T07:11:49.761Z,95
2017-09-12T07:12:58.963Z,105
2017-09-12T07:14:07.906Z,105
2017-09-12T07:15:16.751Z,95
2017-09-12T07:16:25.996Z,80
2017-09-12T07:17:35.067Z,85
2017-09-12T07:18:44.245Z,105
2017-09-12T07:19:53.189Z,125
2017-09-12T07:21:02.037Z,195
2017-09-12T07:22:11.215Z,210
2017-09-12T07:23:20.058Z,220
2017-09-12T07:24:28.902Z,225
2017-09-12T07:25:37.848Z,235
2017-09-12T07:26:47.026Z,255
2017-09-12T07:27:55.872Z,300
2017-09-12T07:29:04.716Z,285
2017-09-12T07:30:13.561Z,285
2017-09-12T07:31:22.568Z,285
2017-09-12T07:32:31.413Z,255
2017-09-12T07:33:40.273Z,265
2017-09-12T07:34:49.120Z,245
2017-09-12T07:35:57.969Z,235
2017-09-12T07:37:06.883Z,220
2017-09-12T07:38:15.735Z,210
2017-09-12T07:39:24.583Z,220
2017-09-12T07:40:33.430Z,235
2017-09-12T07:41:42.276Z,245
2017-09-12T07:42:51.224Z,235
2017-09-12T07:44:00.070Z,240
2017-09-12T07:45:08.919Z,240
2017-09-12T07:46:17.764Z,230
2017-09-12T07:47:26.609Z,235
2017-09-12T07:48:35.649Z,225
2017-09-12T07:49:44.966Z,250
2017-09-12T07:50:53.862Z,365
2017-09-12T07:52:02.709Z,370
2017-09-12T07:53:11.556Z,365
2017-09-12T07:54:20.743Z,360
2017-09-12T07:55:29.670Z,360
2017-09-12T07:56:38.511Z,310
2017-09-12T07:57:47.358Z,220
2017-09-12T07:58:56.202Z,165
2017-09-12T08:00:05.354Z,140
2017-09-12T08:01:14.199Z,170
2017-09-12T08:02:23.051Z,175
2017-09-12T08:03:31.896Z,195
2017-09-12T08:04:40.857Z,230
2017-09-12T08:05:49.964Z,210
2017-09-12T08:06:58.807Z,190
2017-09-12T08:08:07.652Z,190
2017-09-12T08:09:16.498Z,190
2017-09-12T08:10:25.347Z,195
2017-09-12T08:11:34.870Z,200
2017-09-12T08:12:43.716Z,225
2017-09-12T08:13:52.567Z,185
2017-09-12T08:15:01.532Z,175
2017-09-12T08:16:10.637Z,175
2017-09-12T08:17:19.725Z,180
2017-09-12T08:18:28.976Z,190
2017-09-12T08:19:37.980Z,200
2017-09-12T08:20:46.827Z,200
2017-09-12T08:21:55.675Z,195
2017-09-12T08:23:04.821Z,270
2017-09-12T08:24:13.673Z,260
2017-09-12T08:25:22.532Z,320
2017-09-12T08:26:31.380Z,300
2017-09-12T08:27:40.225Z,290
2017-09-12T08:28:49.221Z,300
2017-09-12T08:29:58.068Z,320
2017-09-12T08:31:06.962Z,340
2017-09-12T08:32:16.161Z,310
2017-09-12T08:33:25.011Z,315
2017-09-12T08:34:33.949Z,345
2017-09-12T08:35:43.163Z,365
2017-09-12T08:36:52.013Z,260
2017-09-12T08:38:00.871Z,225
2017-09-12T08:39:09.717Z,200
2017-09-12T08:40:18.772Z,200
2017-09-12T08:41:27.618Z,205
2017-09-12T08:42:36.464Z,215
2017-09-12T08:43:45.309Z,215
2017-09-12T08:44:54.159Z,220
2017-09-12T08:46:03.105Z,210
2017-09-12T08:47:11.953Z,210
2017-09-12T08:48:20.814Z,210
2017-09-12T08:49:29.677Z,220
2017-09-12T08:50:38.525Z,250
2017-09-12T08:51:47.570Z,265
2017-09-12T08:52:56.417Z,280
2017-09-12T08:54:05.262Z,355
2017-09-12T08:55:14.107Z,380
2017-09-12T08:56:22.953Z,435
2017-09-12T08:57:31.949Z,365
2017-09-12T08:58:40.796Z,315
2017-09-12T08:59:49.644Z,345
2017-09-12T09:00:58.493Z,335
2017-09-12T09:02:07.374Z,285
2017-09-12T09:03:16.274Z,295
2017-09-12T09:04:25.238Z,345
2017-09-12T09:05:34.426Z,370
2017-09-12T09:06:43.304Z,310
2017-09-12T09:07:52.156Z,310
2017-09-12T09:09:01.155Z,325
2017-09-12T09:10:10.008Z,350
2017-09-12T09:11:18.854Z,330
2017-09-12T09:12:27.700Z,315
2017-09-12T09:13:36.544Z,310
2017-09-12T09:14:45.669Z,330
2017-09-12T09:15:54.554Z,410
2017-09-12T09:17:03.400Z,275
2017-09-12T09:18:12.265Z,370
2017-09-12T09:19:21.121Z,385
2017-09-12T09:20:30.119Z,325
2017-09-12T09:21:38.967Z,295
2017-09-12T09:22:47.827Z,290
2017-09-12T09:23:56.695Z,315
2017-09-12T09:25:05.616Z,275
2017-09-12T09:26:14.612Z,280
2017-09-12T09:27:23.486Z,375
2017-09-12T09:28:32.371Z,390
2017-09-12T09:29:41.219Z,365
2017-09-12T09:30:50.396Z,320
2017-09-12T09:31:59.747Z,305
2017-09-12T09:33:08.628Z,355
2017-09-12T09:34:17.543Z,400
2017-09-12T09:35:26.398Z,270
2017-09-12T09:36:35.246Z,375
2017-09-12T09:37:44.158Z,390
2017-09-12T09:38:53.008Z,420
2017-09-12T09:40:01.856Z,405
2017-09-12T09:41:10.710Z,445
2017-09-12T09:42:19.587Z,455
2017-09-12T09:43:28.515Z,410
2017-09-12T09:44:37.403Z,450
2017-09-12T09:45:46.255Z,445
2017-09-12T09:46:55.203Z,415
2017-09-12T09:48:04.090Z,425
2017-09-12T09:49:13.084Z,430
2017-09-12T09:50:21.935Z,455
2017-09-12T09:51:30.844Z,445
2017-09-12T09:52:40.032Z,360
2017-09-12T09:53:48.880Z,320
2017-09-12T09:54:57.957Z,345
2017-09-12T09:56:06.816Z,305
2017-09-12T09:57:15.664Z,285
2017-09-12T09:58:24.544Z,360
2017-09-12T09:59:33.398Z,415
2017-09-12T10:00:42.541Z,370
2017-09-12T10:01:51.388Z,390
2017-09-12T10:03:00.287Z,450
2017-09-12T10:04:09.140Z,475
2017-09-12T10:05:18.025Z,495
2017-09-12T10:06:27.641Z,475
2017-09-12T10:07:36.494Z,385
2017-09-12T10:08:45.358Z,355
2017-09-12T10:09:54.205Z,285
2017-09-12T10:11:03.390Z,335
2017-09-12T10:12:12.879Z,345
2017-09-12T10:13:21.726Z,360
2017-09-12T10:14:30.914Z,385
2017-09-12T10:15:39.761Z,415
2017-09-12T10:16:48.608Z,325
2017-09-12T10:17:57.608Z,275
2017-09-12T10:19:06.456Z,285
2017-09-12T10:20:15.316Z,300
2017-09-12T10:21:24.162Z,295
2017-09-12T10:22:33.258Z,315
2017-09-12T10:23:42.451Z,400
2017-09-12T10:24:51.302Z,420
2017-09-12T10:26:00.185Z,425
2017-09-12T10:27:09.036Z,355
2017-09-12T10:28:18.232Z,310
2017-09-12T10:29:27.465Z,295
2017-09-12T10:30:36.314Z,290
2017-09-12T10:31:45.160Z,290
2017-09-12T10:32:54.022Z,290
2017-09-12T10:34:02.888Z,300
2017-09-12T10:35:11.885Z,325
2017-09-12T10:36:20.740Z,385
2017-09-12T10:37:29.609Z,380
2017-09-12T10:38:38.455Z,430
2017-09-12T10:39:47.303Z,565
2017-09-12T10:40:56.306Z,585
2017-09-12T10:42:05.151Z,520
2017-09-12T10:43:14.001Z,490
2017-09-12T10:44:22.851Z,470
2017-09-12T10:45:31.695Z,455
2017-09-12T10:46:40.846Z,410
2017-09-12T10:47:49.702Z,365
2017-09-12T10:48:58.552Z,360
2017-09-12T10:50:07.733Z,355
2017-09-12T10:51:16.582Z,380
2017-09-12T10:52:25.587Z,490
2017-09-12T10:53:34.726Z,475
2017-09-12T10:54:43.573Z,450
2017-09-12T10:55:52.421Z,445
2017-09-12T10:57:01.275Z,380
2017-09-12T10:58:10.508Z,445
2017-09-12T10:59:19.697Z,470
2017-09-12T11:00:28.548Z,535
2017-09-12T11:01:37.394Z,560
2017-09-12T11:02:46.240Z,475
2017-09-12T11:03:55.139Z,390
2017-09-12T11:05:03.989Z,370
2017-09-12T11:06:12.929Z,410
2017-09-12T11:07:21.778Z,420
2017-09-12T11:08:30.628Z,430
2017-09-12T11:09:39.678Z,435
2017-09-12T11:10:48.521Z,395
2017-09-12T11:11:57.371Z,425
2017-09-12T11:13:06.244Z,385
2017-09-12T11:14:15.108Z,450
2017-09-12T11:15:24.356Z,445
2017-09-12T11:16:33.222Z,465
2017-09-12T11:17:42.403Z,470
2017-09-12T11:18:51.628Z,450
2017-09-12T11:20:00.477Z,435
2017-09-12T11:21:09.490Z,375
2017-09-12T11:22:18.357Z,510
2017-09-12T11:23:27.206Z,455
2017-09-12T11:24:36.095Z,475
2017-09-12T11:25:44.948Z,445
2017-09-12T11:26:53.971Z,395
2017-09-12T11:28:02.824Z,390
2017-09-12T11:29:11.710Z,385
2017-09-12T11:30:20.580Z,390
2017-09-12T11:31:29.429Z,490
2017-09-12T11:32:38.394Z,485
2017-09-12T11:33:47.320Z,380
2017-09-12T11:34:56.163Z,460
2017-09-12T11:36:05.010Z,430
2017-09-12T11:37:13.859Z,515
2017-09-12T11:38:23.010Z,635
2017-09-12T11:39:31.920Z,620
2017-09-12T11:40:41.028Z,620
2017-09-12T11:41:49.877Z,600
2017-09-12T11:42:58.725Z,585
2017-09-12T11:44:07.674Z,635
2017-09-12T11:45:16.523Z,685
2017-09-12T11:46:25.708Z,700
2017-09-12T11:47:34.566Z,665
2017-09-12T11:48:43.418Z,660
2017-09-12T11:49:52.314Z,655
2017-09-12T11:51:01.162Z,585
2017-09-12T11:52:10.015Z,520
2017-09-12T11:53:18.856Z,525
2017-09-12T11:54:27.704Z,165
2017-09-12T11:55:36.703Z,185
2017-09-12T11:56:45.552Z,215
2017-09-12T11:57:54.403Z,205
2017-09-12T11:59:03.253Z,195
2017-09-12T12:00:12.102Z,190
2017-09-12T12:01:21.049Z,190
2017-09-12T12:02:29.911Z,205
2017-09-12T12:03:39.089Z,220
2017-09-12T12:04:47.941Z,255
2017-09-12T12:05:56.789Z,300
2017-09-12T12:07:05.751Z,390
2017-09-12T12:08:14.610Z,1125
2017-09-12T12:09:23.792Z,775
2017-09-12T12:10:32.641Z,800
2017-09-12T12:11:41.485Z,725
2017-09-12T12:12:50.429Z,665
2017-09-12T12:13:59.277Z,575
2017-09-12T12:15:08.124Z,630
2017-09-12T12:16:16.972Z,855
2017-09-12T12:17:25.868Z,860
2017-09-12T12:18:35.015Z,395
2017-09-12T12:19:43.859Z,265
2017-09-12T12:20:52.703Z,235
2017-09-12T12:22:01.549Z,225
2017-09-12T12:23:10.396Z,220
2017-09-12T12:24:19.365Z,215
2017-09-12T12:25:28.237Z,225
2017-09-12T12:26:37.100Z,240
2017-09-12T12:27:45.948Z,255
2017-09-12T12:28:54.793Z,270
2017-09-12T12:30:03.691Z,290
2017-09-12T12:31:12.537Z,320
2017-09-12T12:32:21.386Z,340
2017-09-12T12:33:30.242Z,355
2017-09-12T12:34:39.088Z,385
2017-09-12T12:35:48.035Z,455
2017-09-12T12:36:56.885Z,465
2017-09-12T12:38:05.733Z,505
2017-09-12T12:39:14.580Z,500
2017-09-12T12:40:23.467Z,515
2017-09-12T12:41:32.613Z,540
2017-09-12T12:42:41.463Z,675
2017-09-12T12:43:50.376Z,675
2017-09-12T12:44:59.554Z,740
2017-09-12T12:46:08.408Z,605
2017-09-12T12:47:17.274Z,645
2017-09-12T12:48:26.153Z,560
2017-09-12T12:49:35.382Z,530
2017-09-12T12:50:44.555Z,650
2017-09-12T12:51:53.416Z,615
2017-09-12T12:53:02.260Z,640
2017-09-12T12:54:11.111Z,610
2017-09-12T12:55:19.988Z,650
2017-09-12T12:56:28.887Z,670
2017-09-12T12:57:37.732Z,655
2017-09-12T12:58:46.730Z,695
2017-09-12T12:59:56.489Z,885
2017-09-12T13:01:05.365Z,1105
2017-09-12T13:02:14.227Z,865
2017-09-12T13:03:23.072Z,820
2017-09-12T13:04:32.076Z,745
2017-09-12T13:05:40.924Z,660
2017-09-12T13:06:49.780Z,590
2017-09-12T13:07:58.642Z,580
2017-09-12T13:09:07.491Z,520
2017-09-12T13:10:16.398Z,550
2017-09-12T13:11:25.245Z,550
2017-09-12T13:12:34.094Z,510
2017-09-12T13:13:42.946Z,440
2017-09-12T13:14:51.800Z,515
2017-09-12T13:16:00.654Z,575
2017-09-12T13:17:09.502Z,470
2017-09-12T13:18:18.345Z,405
2017-09-12T13:19:27.228Z,430
2017-09-12T13:20:36.096Z,385
2017-09-12T13:21:44.995Z,375
2017-09-12T13:22:54.209Z,355
2017-09-12T13:24:03.054Z,350
2017-09-12T13:25:11.903Z,390
2017-09-12T13:26:20.750Z,415
2017-09-12T13:27:29.602Z,390
2017-09-12T13:28:38.449Z,315
2017-09-12T13:29:47.360Z,300
2017-09-12T13:30:56.254Z,300
2017-09-12T13:32:05.149Z,440
2017-09-12T13:33:14.001Z,420
2017-09-12T13:34:23.287Z,390
2017-09-12T13:35:32.676Z,405
2017-09-12T13:36:41.616Z,345
2017-09-12T13:37:50.538Z,380
2017-09-12T13:38:59.393Z,570
2017-09-12T13:40:08.240Z,1000
2017-09-12T13:41:17.088Z,1555
2017-09-12T13:42:25.937Z,1255
2017-09-12T13:43:34.784Z,740
2017-09-12T13:44:43.633Z,720
2017-09-12T13:45:52.533Z,750
2017-09-12T13:47:01.439Z,540
2017-09-12T13:48:10.300Z,355
2017-09-12T13:49:19.156Z,340
2017-09-12T13:50:28.020Z,365
2017-09-12T13:51:36.868Z,560
2017-09-12T13:52:45.737Z,405
2017-09-12T13:53:54.652Z,610
2017-09-12T13:55:03.602Z,335
2017-09-12T13:56:12.455Z,560
2017-09-12T13:57:21.353Z,545
2017-09-12T13:58:30.209Z,615
2017-09-12T13:59:39.067Z,435
2017-09-12T14:00:47.943Z,605
2017-09-12T14:01:57.141Z,620
2017-09-12T14:03:06.198Z,325
2017-09-12T14:04:15.382Z,715
2017-09-12T14:05:24.248Z,1240
2017-09-12T14:06:33.103Z,1965
2017-09-12T14:07:41.972Z,2280
2017-09-12T14:08:50.984Z,1940
2017-09-12T14:09:59.854Z,2695
2017-09-12T14:11:08.710Z,2760
2017-09-12T14:12:17.575Z,1940
2017-09-12T14:13:26.432Z,2680
2017-09-12T14:14:35.435Z,2890
2017-09-12T14:15:44.296Z,2240
2017-09-12T14:16:53.149Z,2860
2017-09-12T14:18:02.001Z,2820
2017-09-12T14:19:10.858Z,2370
2017-09-12T14:20:19.899Z,1195
2017-09-12T14:21:28.788Z,2005
2017-09-12T14:22:37.658Z,1485
2017-09-12T14:23:46.568Z,2905
2017-09-12T14:24:55.466Z,2780
2017-09-12T14:26:04.424Z,1585
2017-09-12T14:27:13.287Z,655
2017-09-12T14:28:22.141Z,2610
2017-09-12T14:29:30.998Z,2615
2017-09-12T14:30:39.868Z,2605
2017-09-12T14:31:49.038Z,2635
2017-09-12T14:32:57.905Z,2625
2017-09-12T14:34:06.766Z,2520
2017-09-12T14:35:15.640Z,2615
2017-09-12T14:36:24.496Z,2560
2017-09-12T14:37:33.524Z,2640
2017-09-12T14:38:42.711Z,2535
2017-09-12T14:39:51.616Z,2475
2017-09-12T14:41:00.472Z,2530
2017-09-12T14:42:09.331Z,2115
2017-09-12T14:43:18.832Z,1080
2017-09-12T14:44:27.714Z,585
2017-09-12T14:45:36.903Z,370
2017-09-12T14:46:45.764Z,810
2017-09-12T14:47:54.621Z,895
2017-09-12T14:49:03.676Z,1860
2017-09-12T14:50:12.795Z,615
2017-09-12T14:51:21.988Z,530
2017-09-12T14:52:30.848Z,520
2017-09-12T14:53:39.706Z,550
2017-09-12T14:54:48.714Z,480
2017-09-12T14:55:57.580Z,515
2017-09-12T14:57:06.445Z,545
2017-09-12T14:58:15.631Z,455
2017-09-12T14:59:24.486Z,485
2017-09-12T15:00:33.590Z,600
2017-09-12T15:01:42.441Z,610
2017-09-12T15:02:51.291Z,585
2017-09-12T15:04:00.142Z,315
2017-09-12T15:05:08.992Z,185
2017-09-12T15:06:18.330Z,120
2017-09-12T15:07:27.178Z,125
2017-09-12T15:08:36.030Z,185
2017-09-12T15:09:44.883Z,125
2017-09-12T15:10:53.733Z,120
2017-09-12T15:12:02.740Z,185
2017-09-12T15:13:11.583Z,345
2017-09-12T15:14:20.434Z,425
2017-09-12T15:15:29.284Z,405
2017-09-12T15:16:38.133Z,380
2017-09-12T15:17:47.137Z,235
2017-09-12T15:18:56.009Z,195
2017-09-12T15:20:05.212Z,210
2017-09-12T15:21:14.073Z,225
2017-09-12T15:22:22.923Z,270
2017-09-12T15:23:31.874Z,270
2017-09-12T15:24:40.728Z,270
2017-09-12T15:25:49.579Z,245
2017-09-12T15:26:58.429Z,205
2017-09-12T15:28:07.297Z,220
2017-09-12T15:29:16.464Z,200
2017-09-12T15:30:25.309Z,190
2017-09-12T15:31:34.173Z,165
2017-09-12T15:32:43.024Z,140
2017-09-12T15:33:52.205Z,110
2017-09-12T15:35:01.213Z,90
2017-09-12T15:36:10.067Z,85
2017-09-12T15:37:19.248Z,80
2017-09-12T15:38:28.105Z,75
2017-09-12T15:39:36.981Z,70
2017-09-12T15:40:46.080Z,65
2017-09-12T15:41:54.942Z,70
2017-09-12T15:43:03.793Z,80
2017-09-12T15:44:12.642Z,85
2017-09-12T15:45:21.495Z,95
2017-09-12T15:46:30.444Z,110
2017-09-12T15:47:39.294Z,125
2017-09-12T15:48:48.143Z,145
2017-09-12T15:49:56.990Z,160
2017-09-12T15:51:05.841Z,175
2017-09-12T15:52:14.689Z,185
2017-09-12T15:53:23.538Z,180
2017-09-12T15:54:32.386Z,175
2017-09-12T15:55:41.233Z,175
2017-09-12T15:56:50.082Z,185
2017-09-12T15:57:59.079Z,230
2017-09-12T15:59:07.947Z,405
2017-09-12T16:00:16.806Z,635
2017-09-12T16:01:25.670Z,1345
2017-09-12T16:02:34.527Z,1900
2017-09-12T16:03:43.478Z,1575
2017-09-12T16:04:52.668Z,1240
2017-09-12T16:06:01.517Z,1055
2017-09-12T16:07:10.369Z,1040
2017-09-12T16:08:19.221Z,805
2017-09-12T16:09:28.072Z,920
2017-09-12T16:10:36.923Z,1390